Time;durP1;ratioP1;P1;durP2;ratioP2;P2;SDS_P1;SDS_P2;PMS_P1;PMS_P2;Temp;Humidity;BMP_temperature;BMP_pressure;BME280_temperature;BME280_humidity;BME280_pressure;Samples;Min_cycle;Max_cycle;Signal;HPM_P1;HPM_P2
2023/06/12 00:03:03;;;;;;;8.75;5.07;;;;;;;;;;10093483;28;20597;-70
2023/06/12 00:08:00;;;;;;;5.88;5.03;;;;;;;;;;10097904;28;20697;-70
2023/06/12 00:12:57;;;;;;;8.65;4.93;;;;;;;;;;10099512;28;20082;-70
2023/06/12 00:17:53;;;;;;;6.57;5.40;;;;;;;;;;10104796;28;20055;-70
2023/06/12 00:22:50;;;;;;;9.60;5.28;;;;;;;;;;10099654;28;20096;-70
2023/06/12 00:27:46;;;;;;;7.47;5.20;;;;;;;;;;10096337;28;20051;-70
2023/06/12 00:32:43;;;;;;;8.35;5.28;;;;;;;;;;10103898;28;20046;-70
2023/06/12 00:37:41;;;;;;;7.53;5.35;;;;;;;;;;10103418;28;20114;-71
2023/06/12 00:42:42;;;;;;;7.40;5.13;;;;;;;;;;10106433;28;20137;-69
2023/06/12 00:47:40;;;;;;;8.48;5.45;;;;;;;;;;10107161;28;20046;-70
2023/06/12 00:52:39;;;;;;;13.07;5.47;;;;;;;;;;10097720;28;20617;-70
2023/06/12 00:57:37;;;;;;;6.70;5.22;;;;;;;;;;10100421;28;20081;-70
2023/06/12 01:08:26;;;;;;;6.63;4.60;;;;;;;;;;10875456;23;20059;-67
2023/06/12 01:13:22;;;;;;;6.70;5.05;;;;;;;;;;10038740;29;20457;-64
2023/06/12 01:18:21;;;;;;;6.40;4.95;;;;;;;;;;10058037;28;20417;-68
2023/06/12 01:23:20;;;;;;;8.90;5.35;;;;;;;;;;10068619;28;20496;-65
2023/06/12 01:28:23;;;;;;;6.88;4.82;;;;;;;;;;10041110;29;20118;-67
2023/06/12 01:33:30;;;;;;;5.47;4.45;;;;;;;;;;10019489;29;20050;-66
2023/06/12 01:38:28;;;;;;;7.50;4.95;;;;;;;;;;10022834;29;20517;-66
2023/06/12 01:43:24;;;;;;;7.03;5.63;;;;;;;;;;10058182;28;20043;-66
2023/06/12 01:48:21;;;;;;;6.38;4.78;;;;;;;;;;10065856;28;20624;-65
2023/06/12 01:53:17;;;;;;;8.40;5.45;;;;;;;;;;10061035;29;20051;-65
2023/06/12 01:58:13;;;;;;;7.88;5.03;;;;;;;;;;10069064;28;20047;-65
2023/06/12 02:03:10;;;;;;;6.38;5.15;;;;;;;;;;10072263;28;20054;-66
2023/06/12 02:08:06;;;;;;;7.80;5.30;;;;;;;;;;10065086;28;20481;-66
2023/06/12 02:13:02;;;;;;;8.40;4.95;;;;;;;;;;10059314;29;20063;-65
2023/06/12 02:18:00;;;;;;;8.35;5.20;;;;;;;;;;10067901;28;20054;-66
2023/06/12 02:22:56;;;;;;;7.50;5.85;;;;;;;;;;10071210;29;20103;-67
2023/06/12 02:27:52;;;;;;;9.32;5.93;;;;;;;;;;10064859;28;20058;-67
2023/06/12 02:32:49;;;;;;;7.30;4.90;;;;;;;;;;10033726;29;20052;-66
2023/06/12 02:37:45;;;;;;;7.85;5.75;;;;;;;;;;10027987;29;20454;-67
2023/06/12 02:42:42;;;;;;;10.13;5.65;;;;;;;;;;10043936;28;20588;-66
2023/06/12 02:47:38;;;;;;;9.57;5.40;;;;;;;;;;10051473;28;20505;-66
2023/06/12 02:52:34;;;;;;;8.20;5.50;;;;;;;;;;10048555;28;20422;-67
2023/06/12 02:57:31;;;;;;;10.70;5.60;;;;;;;;;;10054864;28;20051;-66
2023/06/12 03:02:27;;;;;;;6.53;5.30;;;;;;;;;;10044844;28;20048;-66
2023/06/12 03:07:24;;;;;;;7.65;6.03;;;;;;;;;;10035180;28;20052;-66
2023/06/12 03:12:21;;;;;;;6.65;5.57;;;;;;;;;;10057245;28;20047;-67
2023/06/12 03:17:20;;;;;;;10.88;6.32;;;;;;;;;;10061563;28;20110;-67
2023/06/12 03:22:16;;;;;;;11.38;5.65;;;;;;;;;;10068347;28;20079;-67
2023/06/12 03:27:14;;;;;;;11.63;6.00;;;;;;;;;;10058687;28;20047;-67
2023/06/12 03:32:10;;;;;;;6.43;5.15;;;;;;;;;;10052365;29;21418;-69
2023/06/12 03:37:06;;;;;;;7.53;6.28;;;;;;;;;;10050826;28;20055;-69
2023/06/12 03:42:03;;;;;;;7.88;6.03;;;;;;;;;;10065130;28;20047;-69
2023/06/12 03:46:59;;;;;;;9.50;6.15;;;;;;;;;;10057177;28;20066;-69
2023/06/12 03:51:56;;;;;;;7.22;5.43;;;;;;;;;;10060297;28;20055;-69
2023/06/12 03:56:52;;;;;;;8.10;5.50;;;;;;;;;;10044205;28;20153;-69
2023/06/12 04:01:57;;;;;;;9.02;6.13;;;;;;;;;;10062572;29;20078;-69
2023/06/12 04:06:53;;;;;;;10.30;5.90;;;;;;;;;;10056655;28;20054;-70
2023/06/12 04:11:49;;;;;;;8.70;5.47;;;;;;;;;;10058631;29;20093;-70
2023/06/12 04:16:46;;;;;;;7.75;5.95;;;;;;;;;;10059999;28;20118;-70
2023/06/12 04:21:42;;;;;;;7.93;6.10;;;;;;;;;;10069019;29;20704;-70
2023/06/12 04:26:40;;;;;;;8.27;6.43;;;;;;;;;;10058648;28;20074;-70
2023/06/12 04:31:36;;;;;;;14.90;7.93;;;;;;;;;;10058926;28;20051;-70
2023/06/12 04:36:37;;;;;;;7.97;7.03;;;;;;;;;;10049043;28;20047;-70
2023/06/12 04:41:36;;;;;;;12.57;7.10;;;;;;;;;;10064497;29;20517;-69
2023/06/12 04:46:33;;;;;;;7.30;6.57;;;;;;;;;;10052340;29;20047;-69
2023/06/12 04:51:29;;;;;;;9.43;6.72;;;;;;;;;;10058374;28;20555;-70
2023/06/12 04:56:27;;;;;;;8.48;7.07;;;;;;;;;;10058451;28;20051;-70
2023/06/12 05:01:23;;;;;;;8.60;7.25;;;;;;;;;;10057930;28;20052;-69
2023/06/12 05:06:20;;;;;;;10.20;7.07;;;;;;;;;;10040074;29;20051;-71
2023/06/12 05:11:17;;;;;;;7.60;6.38;;;;;;;;;;10059900;28;20497;-69
2023/06/12 05:16:13;;;;;;;7.82;7.03;;;;;;;;;;10064939;29;20047;-69
2023/06/12 05:21:10;;;;;;;10.25;6.45;;;;;;;;;;10071752;29;20071;-69
2023/06/12 05:26:07;;;;;;;14.65;7.60;;;;;;;;;;10068742;29;20117;-69
2023/06/12 05:31:05;;;;;;;10.88;7.40;;;;;;;;;;10066692;28;20043;-69
2023/06/12 05:36:02;;;;;;;9.68;6.85;;;;;;;;;;10054489;28;20051;-69
2023/06/12 05:40:59;;;;;;;8.68;6.25;;;;;;;;;;10032737;28;20071;-70
2023/06/12 05:45:55;;;;;;;9.10;7.35;;;;;;;;;;10050421;28;20460;-69
2023/06/12 05:50:52;;;;;;;10.23;7.30;;;;;;;;;;10048253;28;20103;-69
2023/06/12 05:55:48;;;;;;;9.30;7.63;;;;;;;;;;10011023;29;20055;-69
2023/06/12 06:00:45;;;;;;;8.85;7.88;;;;;;;;;;10006747;29;20079;-69
2023/06/12 06:05:41;;;;;;;12.82;7.93;;;;;;;;;;10013251;29;20506;-69
2023/06/12 06:10:38;;;;;;;10.50;7.90;;;;;;;;;;10015192;29;20630;-70
2023/06/12 06:15:35;;;;;;;10.60;7.88;;;;;;;;;;10019027;29;20055;-68
2023/06/12 06:20:33;;;;;;;11.65;8.13;;;;;;;;;;10064744;29;20047;-69
2023/06/12 06:25:31;;;;;;;10.98;7.88;;;;;;;;;;10068530;29;20062;-69
2023/06/12 06:30:27;;;;;;;11.82;7.88;;;;;;;;;;10066432;28;20062;-69
2023/06/12 06:35:24;;;;;;;12.23;6.93;;;;;;;;;;10060678;28;20097;-69
2023/06/12 06:40:21;;;;;;;11.63;7.32;;;;;;;;;;10072962;28;20054;-69
2023/06/12 06:45:17;;;;;;;13.48;7.63;;;;;;;;;;10070466;28;20122;-69
2023/06/12 06:50:13;;;;;;;10.50;7.65;;;;;;;;;;10058910;28;20528;-69
2023/06/12 06:55:09;;;;;;;8.45;7.53;;;;;;;;;;10042689;29;20501;-69
2023/06/12 07:00:08;;;;;;;13.32;7.68;;;;;;;;;;10068857;29;20043;-72
2023/06/12 07:05:04;;;;;;;7.60;6.72;;;;;;;;;;10071984;29;20055;-70
2023/06/12 07:10:01;;;;;;;10.30;7.43;;;;;;;;;;10071560;28;20424;-69
2023/06/12 07:14:57;;;;;;;9.88;7.22;;;;;;;;;;10066566;29;20050;-69
2023/06/12 07:19:53;;;;;;;9.05;8.05;;;;;;;;;;10053348;29;20390;-69
2023/06/12 07:24:50;;;;;;;8.75;7.68;;;;;;;;;;10064682;29;20119;-69
2023/06/12 07:29:47;;;;;;;13.07;6.93;;;;;;;;;;10064212;28;20043;-69
2023/06/12 07:34:43;;;;;;;7.85;7.10;;;;;;;;;;10065880;28;20398;-69
2023/06/12 07:39:39;;;;;;;10.93;7.55;;;;;;;;;;10068210;28;20501;-69
2023/06/12 07:44:37;;;;;;;7.97;7.18;;;;;;;;;;10063876;29;20059;-69
2023/06/12 07:49:33;;;;;;;11.55;7.80;;;;;;;;;;10056724;28;20070;-69
2023/06/12 07:54:30;;;;;;;8.50;7.18;;;;;;;;;;10062906;29;20071;-70
2023/06/12 07:59:26;;;;;;;9.13;6.97;;;;;;;;;;10058303;29;20051;-69
2023/06/12 08:04:22;;;;;;;8.35;7.03;;;;;;;;;;10061550;29;20051;-69
2023/06/12 08:09:19;;;;;;;9.93;6.60;;;;;;;;;;10061874;28;20517;-69
2023/06/12 08:14:15;;;;;;;8.27;7.43;;;;;;;;;;10063556;29;20046;-69
2023/06/12 08:19:12;;;;;;;10.07;7.15;;;;;;;;;;10054405;29;20055;-69
2023/06/12 08:24:10;;;;;;;7.38;6.68;;;;;;;;;;10067360;29;20093;-69
2023/06/12 08:29:06;;;;;;;13.18;7.25;;;;;;;;;;10057356;28;20070;-69
2023/06/12 08:34:03;;;;;;;9.63;6.78;;;;;;;;;;10066054;28;20046;-69
2023/06/12 08:39:00;;;;;;;11.40;7.05;;;;;;;;;;10070828;28;20504;-70
2023/06/12 08:43:56;;;;;;;7.75;6.90;;;;;;;;;;10075901;29;20055;-69
2023/06/12 08:48:59;;;;;;;8.02;6.60;;;;;;;;;;10079827;28;20058;-69
2023/06/12 08:53:56;;;;;;;9.98;6.88;;;;;;;;;;10063931;29;20087;-69
2023/06/12 08:58:52;;;;;;;10.48;9.05;;;;;;;;;;10065455;29;20512;-68
2023/06/12 09:03:52;;;;;;;7.18;6.47;;;;;;;;;;10050085;29;20378;-68
2023/06/12 09:08:48;;;;;;;12.45;6.57;;;;;;;;;;10065687;28;20047;-68
2023/06/12 09:13:45;;;;;;;7.85;6.60;;;;;;;;;;10067139;29;20043;-68
2023/06/12 09:18:50;;;;;;;9.20;6.82;;;;;;;;;;10062626;28;20052;-70
2023/06/12 09:23:52;;;;;;;9.52;7.10;;;;;;;;;;10072039;29;20700;-70
2023/06/12 09:28:52;;;;;;;10.27;5.87;;;;;;;;;;10067562;28;20075;-70
2023/06/12 09:33:53;;;;;;;8.23;6.70;;;;;;;;;;10069377;29;20082;-70
2023/06/12 09:38:50;;;;;;;8.73;6.80;;;;;;;;;;10067567;28;20052;-70
2023/06/12 09:43:46;;;;;;;8.13;6.25;;;;;;;;;;10067419;28;20047;-70
2023/06/12 09:48:42;;;;;;;7.03;6.20;;;;;;;;;;10042305;28;20055;-70
2023/06/12 09:53:39;;;;;;;8.18;6.20;;;;;;;;;;10069702;29;20527;-70
2023/06/12 09:58:37;;;;;;;7.63;6.32;;;;;;;;;;10066906;29;20410;-70
2023/06/12 10:03:34;;;;;;;8.27;6.53;;;;;;;;;;10070360;29;20122;-70
2023/06/12 10:08:31;;;;;;;8.60;6.40;;;;;;;;;;10072986;28;20065;-70
2023/06/12 10:13:28;;;;;;;7.55;6.50;;;;;;;;;;10066268;29;20042;-70
2023/06/12 10:18:25;;;;;;;11.02;7.45;;;;;;;;;;10068467;28;20465;-70
2023/06/12 10:23:22;;;;;;;9.00;7.13;;;;;;;;;;10071974;28;20046;-67
2023/06/12 10:28:18;;;;;;;10.68;7.43;;;;;;;;;;10059838;28;20106;-67
2023/06/12 10:33:15;;;;;;;8.15;7.35;;;;;;;;;;10066646;29;20063;-67
2023/06/12 10:38:12;;;;;;;8.95;8.00;;;;;;;;;;10067748;28;20075;-70
2023/06/12 10:43:09;;;;;;;11.20;7.32;;;;;;;;;;10070713;29;20067;-67
2023/06/12 10:48:05;;;;;;;8.13;7.32;;;;;;;;;;10067672;28;20050;-67
2023/06/12 10:53:02;;;;;;;12.35;8.00;;;;;;;;;;10067019;28;20079;-67
2023/06/12 10:58:00;;;;;;;9.50;8.02;;;;;;;;;;10069124;29;20051;-70
2023/06/12 11:02:58;;;;;;;8.18;7.38;;;;;;;;;;10069191;29;20401;-70
2023/06/12 11:07:56;;;;;;;17.70;7.35;;;;;;;;;;10067298;28;20047;-67
2023/06/12 11:12:53;;;;;;;8.88;6.80;;;;;;;;;;10066890;28;20047;-68
2023/06/12 11:17:50;;;;;;;8.25;7.40;;;;;;;;;;10060667;28;20429;-68
2023/06/12 11:22:47;;;;;;;12.20;7.13;;;;;;;;;;10065374;28;20078;-67
2023/06/12 11:27:47;;;;;;;7.50;6.82;;;;;;;;;;10063521;28;20046;-68
2023/06/12 11:32:43;;;;;;;9.15;6.45;;;;;;;;;;10041519;28;20413;-67
2023/06/12 11:37:40;;;;;;;6.75;6.15;;;;;;;;;;10068843;29;20069;-68
2023/06/12 11:42:56;;;;;;;7.53;6.90;;;;;;;;;;10065092;29;20047;-68
2023/06/12 11:47:54;;;;;;;7.40;6.70;;;;;;;;;;10063550;28;20039;-72
2023/06/12 11:52:54;;;;;;;7.60;6.75;;;;;;;;;;10064878;29;20047;-67
2023/06/12 11:57:50;;;;;;;8.50;7.07;;;;;;;;;;10058560;29;20126;-68
2023/06/12 12:02:53;;;;;;;11.45;7.30;;;;;;;;;;10067710;29;20050;-67
2023/06/12 12:07:52;;;;;;;7.70;7.00;;;;;;;;;;10070535;28;20493;-68
2023/06/12 12:12:50;;;;;;;7.88;7.10;;;;;;;;;;10072741;29;20433;-68
2023/06/12 12:17:47;;;;;;;7.07;6.47;;;;;;;;;;10073283;29;20047;-68
2023/06/12 12:22:50;;;;;;;7.93;6.78;;;;;;;;;;10069595;29;20582;-68
2023/06/12 12:27:49;;;;;;;8.37;6.97;;;;;;;;;;10054121;28;20087;-68
2023/06/12 12:32:46;;;;;;;7.40;6.50;;;;;;;;;;10071382;28;20087;-68
2023/06/12 12:37:43;;;;;;;7.75;7.05;;;;;;;;;;10069612;29;20047;-68
2023/06/12 12:42:40;;;;;;;6.90;6.30;;;;;;;;;;10064419;29;20059;-68
2023/06/12 12:47:40;;;;;;;8.52;6.68;;;;;;;;;;10071309;28;20169;-68
2023/06/12 12:52:37;;;;;;;7.13;6.38;;;;;;;;;;10040823;29;20048;-68
2023/06/12 12:57:36;;;;;;;7.32;6.72;;;;;;;;;;10021097;29;20060;-68
2023/06/12 13:02:33;;;;;;;9.40;7.28;;;;;;;;;;10036099;29;20131;-68
2023/06/12 13:07:31;;;;;;;8.05;6.50;;;;;;;;;;10067137;29;20425;-68
2023/06/12 13:12:28;;;;;;;7.00;6.30;;;;;;;;;;10067514;29;20043;-68
2023/06/12 13:17:24;;;;;;;6.75;6.20;;;;;;;;;;10068809;28;20083;-68
2023/06/12 13:22:23;;;;;;;9.35;6.70;;;;;;;;;;10068813;29;20040;-68
2023/06/12 13:27:19;;;;;;;8.35;6.13;;;;;;;;;;10068030;29;20102;-68
2023/06/12 13:32:16;;;;;;;7.78;6.28;;;;;;;;;;10066477;29;20498;-68
2023/06/12 13:37:12;;;;;;;7.90;6.20;;;;;;;;;;10055850;29;20054;-68
2023/06/12 13:42:09;;;;;;;8.52;5.85;;;;;;;;;;10068027;28;20035;-69
2023/06/12 13:47:05;;;;;;;8.85;6.50;;;;;;;;;;10071257;29;20433;-69
2023/06/12 13:52:02;;;;;;;6.20;5.60;;;;;;;;;;10066751;29;20051;-69
2023/06/12 13:56:58;;;;;;;7.68;6.05;;;;;;;;;;10064757;29;20452;-68
2023/06/12 14:01:55;;;;;;;7.57;6.03;;;;;;;;;;10068634;29;20070;-68
2023/06/12 14:06:52;;;;;;;6.70;6.05;;;;;;;;;;10062969;29;20047;-69
2023/06/12 14:11:48;;;;;;;6.88;6.18;;;;;;;;;;10062302;28;20043;-70
2023/06/12 14:16:45;;;;;;;8.30;6.55;;;;;;;;;;10070582;28;20445;-69
2023/06/12 14:21:41;;;;;;;6.63;6.03;;;;;;;;;;10053449;29;20055;-69
2023/06/12 14:26:38;;;;;;;8.02;7.18;;;;;;;;;;10067999;28;20055;-69
2023/06/12 14:31:34;;;;;;;7.10;6.22;;;;;;;;;;10069190;28;20110;-69
2023/06/12 14:36:30;;;;;;;7.78;6.85;;;;;;;;;;10059025;29;20143;-69
2023/06/12 14:41:27;;;;;;;7.63;6.40;;;;;;;;;;10064307;29;20518;-69
2023/06/12 14:46:23;;;;;;;8.48;5.70;;;;;;;;;;10068836;29;20047;-69
2023/06/12 14:51:20;;;;;;;10.18;6.65;;;;;;;;;;10067857;28;20125;-69
2023/06/12 14:56:16;;;;;;;7.30;6.60;;;;;;;;;;10065901;28;20039;-69
2023/06/12 15:01:12;;;;;;;9.38;6.82;;;;;;;;;;10061163;29;20114;-69
2023/06/12 15:06:09;;;;;;;7.53;6.80;;;;;;;;;;10070808;29;20411;-69
2023/06/12 15:11:06;;;;;;;7.40;6.80;;;;;;;;;;10058100;28;20050;-70
2023/06/12 15:16:02;;;;;;;6.78;6.10;;;;;;;;;;10063866;29;20043;-70
2023/06/12 15:20:59;;;;;;;7.28;6.68;;;;;;;;;;10064346;29;20047;-68
2023/06/12 15:25:58;;;;;;;7.70;6.07;;;;;;;;;;10054062;29;20055;-70
2023/06/12 15:30:54;;;;;;;8.93;5.85;;;;;;;;;;10063532;28;20085;-69
2023/06/12 15:35:51;;;;;;;6.82;6.20;;;;;;;;;;10065940;29;20066;-68
2023/06/12 15:40:47;;;;;;;7.22;6.53;;;;;;;;;;10067580;28;20051;-68
2023/06/12 15:45:45;;;;;;;7.30;6.20;;;;;;;;;;10066873;29;20098;-68
2023/06/12 15:50:41;;;;;;;7.40;6.40;;;;;;;;;;10067858;29;20043;-68
2023/06/12 15:55:38;;;;;;;6.75;6.05;;;;;;;;;;10059839;29;20050;-69
2023/06/12 16:00:34;;;;;;;7.75;6.38;;;;;;;;;;10061548;29;20587;-70
2023/06/12 16:05:31;;;;;;;10.85;6.97;;;;;;;;;;10056900;29;20055;-68
2023/06/12 16:10:27;;;;;;;7.95;6.28;;;;;;;;;;10065485;28;20063;-68
2023/06/12 16:15:24;;;;;;;7.38;6.68;;;;;;;;;;10060986;28;20083;-68
2023/06/12 16:20:21;;;;;;;6.88;6.28;;;;;;;;;;10054217;29;20071;-68
2023/06/12 16:25:18;;;;;;;7.15;6.50;;;;;;;;;;10060208;29;20686;-69
2023/06/12 16:30:14;;;;;;;7.93;7.22;;;;;;;;;;10067298;28;20050;-68
2023/06/12 16:35:11;;;;;;;7.53;6.75;;;;;;;;;;10065718;28;20054;-69
2023/06/12 16:40:12;;;;;;;8.20;7.40;;;;;;;;;;10060008;29;20039;-68
2023/06/12 16:45:09;;;;;;;6.85;5.97;;;;;;;;;;10059131;29;20054;-68
2023/06/12 16:50:05;;;;;;;10.23;6.88;;;;;;;;;;10061629;29;20055;-68
2023/06/12 16:55:03;;;;;;;8.20;7.40;;;;;;;;;;10061061;28;20047;-70
2023/06/12 16:59:59;;;;;;;6.80;6.20;;;;;;;;;;10067128;29;20167;-67
2023/06/12 17:04:55;;;;;;;9.43;6.80;;;;;;;;;;10065258;29;20047;-70
2023/06/12 17:09:52;;;;;;;7.18;5.93;;;;;;;;;;10015396;29;20052;-69
2023/06/12 17:14:49;;;;;;;6.75;6.03;;;;;;;;;;10021987;29;20067;-69
2023/06/12 17:19:45;;;;;;;8.30;6.20;;;;;;;;;;10002946;29;20478;-69
2023/06/12 17:24:44;;;;;;;7.03;5.97;;;;;;;;;;10065013;29;20062;-68
2023/06/12 17:29:41;;;;;;;7.15;6.45;;;;;;;;;;10063819;28;20051;-68
2023/06/12 17:34:38;;;;;;;7.07;6.30;;;;;;;;;;10072228;28;20055;-69
2023/06/12 17:39:34;;;;;;;7.47;5.80;;;;;;;;;;10068136;28;20062;-69
2023/06/12 17:44:30;;;;;;;6.68;6.07;;;;;;;;;;10067763;29;20054;-69
2023/06/12 17:49:27;;;;;;;6.88;5.78;;;;;;;;;;10070974;29;20059;-69
2023/06/12 17:54:24;;;;;;;6.95;5.90;;;;;;;;;;10068872;29;20173;-69
2023/06/12 17:59:20;;;;;;;8.68;6.57;;;;;;;;;;10065570;29;20047;-69
2023/06/12 18:04:16;;;;;;;6.93;6.03;;;;;;;;;;10064483;29;20040;-69
2023/06/12 18:09:13;;;;;;;8.85;5.40;;;;;;;;;;10044718;29;20043;-69
2023/06/12 18:14:09;;;;;;;9.20;5.75;;;;;;;;;;10048222;29;20043;-68
2023/06/12 18:19:06;;;;;;;5.80;5.20;;;;;;;;;;10068065;29;20126;-70
2023/06/12 18:24:03;;;;;;;6.75;5.60;;;;;;;;;;10063357;29;20055;-68
2023/06/12 18:29:00;;;;;;;6.68;5.53;;;;;;;;;;10064026;29;20051;-68
2023/06/12 18:33:56;;;;;;;6.07;5.47;;;;;;;;;;10069786;29;20051;-68
2023/06/12 18:38:52;;;;;;;7.70;5.50;;;;;;;;;;10052505;29;20090;-68
2023/06/12 18:43:49;;;;;;;9.32;5.78;;;;;;;;;;10055799;28;21984;-67
2023/06/12 18:48:46;;;;;;;8.38;5.40;;;;;;;;;;10059169;29;20051;-67
2023/06/12 18:53:42;;;;;;;11.65;5.90;;;;;;;;;;10068037;29;20106;-67
2023/06/12 18:58:38;;;;;;;8.65;5.20;;;;;;;;;;10067202;28;20477;-67
2023/06/12 19:03:36;;;;;;;6.07;5.50;;;;;;;;;;10055600;29;20048;-68
2023/06/12 19:08:33;;;;;;;6.18;4.93;;;;;;;;;;10066092;28;20071;-67
2023/06/12 19:13:32;;;;;;;8.50;5.50;;;;;;;;;;10059023;28;20050;-68
2023/06/12 19:18:28;;;;;;;8.80;5.68;;;;;;;;;;10062705;29;20079;-67
2023/06/12 19:23:25;;;;;;;6.80;5.25;;;;;;;;;;10064530;29;20046;-67
2023/06/12 19:28:21;;;;;;;5.82;5.22;;;;;;;;;;10062983;28;20110;-66
2023/06/12 19:33:19;;;;;;;6.95;5.15;;;;;;;;;;10049902;29;20109;-67
2023/06/12 19:38:16;;;;;;;5.80;5.00;;;;;;;;;;10065591;28;20046;-67
2023/06/12 19:43:15;;;;;;;7.82;5.05;;;;;;;;;;10048630;29;20039;-67
2023/06/12 19:48:12;;;;;;;5.97;5.28;;;;;;;;;;10045917;29;20130;-67
2023/06/12 19:53:08;;;;;;;6.53;5.35;;;;;;;;;;10061092;28;20505;-67
2023/06/12 19:58:05;;;;;;;5.80;5.30;;;;;;;;;;10059903;28;20694;-67
2023/06/12 20:03:04;;;;;;;7.18;5.38;;;;;;;;;;10063715;29;20055;-67
2023/06/12 20:08:02;;;;;;;10.43;5.05;;;;;;;;;;10067399;28;20054;-67
2023/06/12 20:12:58;;;;;;;6.85;5.20;;;;;;;;;;10047528;28;20071;-67
2023/06/12 20:17:54;;;;;;;6.75;5.68;;;;;;;;;;10038963;29;20040;-66
2023/06/12 20:22:51;;;;;;;6.35;5.15;;;;;;;;;;10057937;28;20840;-66
2023/06/12 20:27:47;;;;;;;5.47;4.70;;;;;;;;;;10064062;28;20067;-66
2023/06/12 20:32:44;;;;;;;5.32;4.82;;;;;;;;;;10073173;28;20075;-64
2023/06/12 20:37:40;;;;;;;6.28;4.93;;;;;;;;;;10063328;29;20130;-64
2023/06/12 20:42:37;;;;;;;6.07;4.97;;;;;;;;;;10064799;28;20505;-64
2023/06/12 20:47:33;;;;;;;8.15;4.95;;;;;;;;;;10066463;28;20075;-65
2023/06/12 20:52:30;;;;;;;5.75;5.15;;;;;;;;;;10067281;28;20095;-65
2023/06/12 20:57:26;;;;;;;6.07;4.93;;;;;;;;;;10059683;29;20047;-64
2023/06/12 21:02:23;;;;;;;6.93;4.90;;;;;;;;;;10063789;29;20102;-65
2023/06/12 21:07:20;;;;;;;5.57;4.45;;;;;;;;;;10059986;29;20044;-65
2023/06/12 21:12:16;;;;;;;6.00;4.88;;;;;;;;;;10063969;29;20249;-65
2023/06/12 21:17:12;;;;;;;6.80;4.70;;;;;;;;;;10041011;28;20035;-65
2023/06/12 21:22:09;;;;;;;6.13;4.82;;;;;;;;;;10068468;28;20067;-65
2023/06/12 21:27:06;;;;;;;6.47;4.65;;;;;;;;;;10068063;28;20494;-65
2023/06/12 21:32:03;;;;;;;6.15;4.95;;;;;;;;;;10067129;28;20043;-65
2023/06/12 21:36:59;;;;;;;9.25;4.50;;;;;;;;;;10065228;28;20079;-65
2023/06/12 21:42:17;;;;;;;6.10;4.88;;;;;;;;;;10066252;28;20113;-65
2023/06/12 21:47:14;;;;;;;6.55;4.78;;;;;;;;;;10066816;28;20079;-66
2023/06/12 21:52:11;;;;;;;7.03;4.68;;;;;;;;;;10062480;29;20054;-65
2023/06/12 21:57:07;;;;;;;7.30;4.75;;;;;;;;;;10062243;29;20078;-65
2023/06/12 22:02:04;;;;;;;5.07;4.47;;;;;;;;;;10064789;29;20734;-65
2023/06/12 22:07:00;;;;;;;4.88;4.38;;;;;;;;;;10066048;29;20051;-65
2023/06/12 22:11:56;;;;;;;5.25;4.45;;;;;;;;;;10061305;29;20082;-65
2023/06/12 22:16:53;;;;;;;5.88;4.45;;;;;;;;;;10057528;28;20043;-65
2023/06/12 22:21:49;;;;;;;6.35;4.45;;;;;;;;;;10065310;28;20043;-65
2023/06/12 22:26:46;;;;;;;5.70;4.43;;;;;;;;;;10065028;29;20047;-65
2023/06/12 22:31:42;;;;;;;9.18;4.28;;;;;;;;;;10063307;29;20106;-65
2023/06/12 22:36:39;;;;;;;5.00;4.30;;;;;;;;;;10041174;29;20043;-63
2023/06/12 22:41:35;;;;;;;5.07;4.18;;;;;;;;;;10064286;29;20057;-65
2023/06/12 22:46:32;;;;;;;6.35;4.50;;;;;;;;;;10063495;29;20075;-64
2023/06/12 22:51:29;;;;;;;7.20;4.32;;;;;;;;;;10066012;28;20058;-64
2023/06/12 22:56:25;;;;;;;8.02;4.55;;;;;;;;;;10055410;29;20096;-65
2023/06/12 23:01:24;;;;;;;6.10;4.25;;;;;;;;;;10065308;29;20125;-64
2023/06/12 23:06:20;;;;;;;4.82;4.30;;;;;;;;;;10062373;28;20065;-65
2023/06/12 23:11:17;;;;;;;4.57;4.15;;;;;;;;;;10062710;29;20494;-65
2023/06/12 23:16:14;;;;;;;5.05;4.55;;;;;;;;;;10059895;28;20659;-65
2023/06/12 23:21:12;;;;;;;5.95;3.97;;;;;;;;;;10065205;29;20128;-65
2023/06/12 23:26:10;;;;;;;6.78;4.55;;;;;;;;;;10062491;29;20080;-66
2023/06/12 23:31:06;;;;;;;7.13;4.22;;;;;;;;;;10041655;29;20055;-65
2023/06/12 23:36:02;;;;;;;5.00;4.45;;;;;;;;;;10051797;29;20658;-64
2023/06/12 23:40:59;;;;;;;4.93;4.10;;;;;;;;;;10063023;29;20725;-65
2023/06/12 23:45:55;;;;;;;5.70;4.30;;;;;;;;;;10060181;29;20075;-64
2023/06/12 23:50:52;;;;;;;6.63;3.75;;;;;;;;;;10062354;29;20485;-65
2023/06/12 23:55:48;;;;;;;5.22;3.80;;;;;;;;;;10058832;29;20497;-65
